createdAt,value
2023-03-25T00:00:07.309Z,62.92
2023-03-25T00:02:56.587Z,63.13
2023-03-25T00:05:45.454Z,63.31
2023-03-25T00:08:35.072Z,63.34
2023-03-25T00:11:24.168Z,63.12
2023-03-25T00:14:17.410Z,63.22
2023-03-25T00:17:07.956Z,63.32
2023-03-25T00:19:57.458Z,63.45
2023-03-25T00:22:46.477Z,63.84
2023-03-25T00:25:35.549Z,63.95
2023-03-25T00:28:25.131Z,63.94
2023-03-25T00:31:16.362Z,63.98
2023-03-25T00:34:06.403Z,63.94
2023-03-25T00:36:57.028Z,64.12
2023-03-25T00:39:46.792Z,64.25
2023-03-25T00:42:35.565Z,64.12
2023-03-25T00:45:26.256Z,64.30
2023-03-25T00:48:18.005Z,64.17
2023-03-25T00:51:10.408Z,64.40
2023-03-25T00:54:01.655Z,64.08
2023-03-25T00:56:52.125Z,64.48
2023-03-25T00:59:40.905Z,64.27
2023-03-25T01:02:31.671Z,64.37
2023-03-25T01:05:21.847Z,64.43
2023-03-25T01:08:15.167Z,64.56
2023-03-25T01:11:03.834Z,64.31
2023-03-25T01:13:54.252Z,64.28
2023-03-25T01:16:43.983Z,64.21
2023-03-25T01:19:35.107Z,64.50
2023-03-25T01:22:24.106Z,64.15
2023-03-25T01:25:14.137Z,64.45
2023-03-25T01:28:05.145Z,64.46
2023-03-25T01:30:53.829Z,64.35
2023-03-25T01:33:43.479Z,64.25
2023-03-25T01:36:32.077Z,64.44
2023-03-25T01:39:21.677Z,64.55
2023-03-25T01:42:13.623Z,64.29
2023-03-25T01:45:25.827Z,64.29
2023-03-25T01:48:20.317Z,64.32
2023-03-25T01:51:14.595Z,64.29
2023-03-25T01:54:04.229Z,64.18
2023-03-25T01:56:53.726Z,64.21
2023-03-25T01:59:43.785Z,64.05
2023-03-25T02:02:40.573Z,64.12
2023-03-25T02:05:38.625Z,64.13
2023-03-25T02:08:28.752Z,63.85
2023-03-25T02:11:18.014Z,64.02
2023-03-25T02:14:11.247Z,63.70
2023-03-25T02:17:11.130Z,63.73
2023-03-25T02:20:39.837Z,63.93
2023-03-25T02:23:44.878Z,63.68
2023-03-25T02:27:14.368Z,63.72
2023-03-25T02:30:31.352Z,63.99
2023-03-25T02:33:41.512Z,63.55
2023-03-25T02:37:03.227Z,63.93
2023-03-25T02:39:59.825Z,63.79
2023-03-25T02:42:52.967Z,63.96
2023-03-25T02:45:47.912Z,63.88
2023-03-25T02:48:41.591Z,63.79
2023-03-25T02:51:34.573Z,63.67
2023-03-25T02:54:26.554Z,63.90
2023-03-25T02:57:21.252Z,63.98
2023-03-25T03:00:16.305Z,63.55
2023-03-25T03:03:06.477Z,63.71
2023-03-25T03:05:59.933Z,63.44
2023-03-25T03:09:06.800Z,63.48
2023-03-25T03:12:08.614Z,63.41
2023-03-25T03:15:18.262Z,63.22
2023-03-25T03:18:15.674Z,63.22
2023-03-25T03:21:13.156Z,63.38
2023-03-25T03:24:08.607Z,63.29
2023-03-25T03:27:03.243Z,63.09
2023-03-25T03:29:56.440Z,63.10
2023-03-25T03:32:54.348Z,63.17
2023-03-25T03:35:50.341Z,63.14
2023-03-25T03:38:45.391Z,63.09
2023-03-25T03:41:38.162Z,62.96
2023-03-25T03:44:33.299Z,63.11
2023-03-25T03:47:26.187Z,62.96
2023-03-25T03:50:21.688Z,62.99
2023-03-25T03:53:16.393Z,62.91
2023-03-25T03:56:09.190Z,62.89
2023-03-25T03:59:00.469Z,63.06
2023-03-25T04:01:54.051Z,62.73
2023-03-25T04:04:44.152Z,62.74
2023-03-25T04:07:40.530Z,63.04
2023-03-25T04:10:39.831Z,63.07
2023-03-25T04:13:34.033Z,62.92
2023-03-25T04:16:25.400Z,62.93
2023-03-25T04:19:18.860Z,62.89
2023-03-25T04:22:07.946Z,62.89
2023-03-25T04:25:00.442Z,63.16
2023-03-25T04:27:49.706Z,62.98
2023-03-25T04:30:39.730Z,63.27
2023-03-25T04:33:30.036Z,63.28
2023-03-25T04:36:20.524Z,63.17
2023-03-25T04:39:10.392Z,63.20
2023-03-25T04:42:03.824Z,63.14
2023-03-25T04:44:52.784Z,63.36
2023-03-25T04:47:44.977Z,63.27
2023-03-25T04:50:34.334Z,63.65
2023-03-25T04:53:23.980Z,63.96
2023-03-25T04:56:17.148Z,64.22
2023-03-25T04:59:09.070Z,64.60
2023-03-25T05:01:57.888Z,64.72
2023-03-25T05:04:47.539Z,64.92
2023-03-25T05:07:36.500Z,65.24
2023-03-25T05:10:29.924Z,65.16
2023-03-25T05:13:18.574Z,65.45
2023-03-25T05:16:09.315Z,65.46
2023-03-25T05:18:59.181Z,65.81
2023-03-25T05:21:48.555Z,65.79
2023-03-25T05:24:37.297Z,65.99
2023-03-25T05:27:25.971Z,65.99
2023-03-25T05:30:16.031Z,66.03
2023-03-25T05:33:06.135Z,66.24
2023-03-25T05:35:55.339Z,66.28
2023-03-25T05:38:44.493Z,66.27
2023-03-25T05:41:39.241Z,66.36
2023-03-25T05:44:27.925Z,66.49
2023-03-25T05:47:17.080Z,66.52
2023-03-25T05:50:09.230Z,66.79
2023-03-25T05:52:59.947Z,67.02
2023-03-25T05:55:52.720Z,66.90
2023-03-25T05:58:41.707Z,67.44
2023-03-25T06:01:33.905Z,67.14
2023-03-25T06:04:24.069Z,67.25
2023-03-25T06:07:19.816Z,67.19
2023-03-25T06:10:09.165Z,67.34
2023-03-25T06:12:57.809Z,67.19
2023-03-25T06:15:48.862Z,67.26
2023-03-25T06:18:37.879Z,67.20
2023-03-25T06:21:29.997Z,67.07
2023-03-25T06:24:20.068Z,66.88
2023-03-25T06:27:12.617Z,66.95
2023-03-25T06:30:01.913Z,66.91
2023-03-25T06:32:52.791Z,66.91
2023-03-25T06:35:42.996Z,66.62
2023-03-25T06:38:34.932Z,66.74
2023-03-25T06:41:29.512Z,66.56
2023-03-25T06:44:53.287Z,66.59
2023-03-25T06:48:02.306Z,66.26
2023-03-25T06:50:50.997Z,66.20
2023-03-25T06:53:40.317Z,65.91
2023-03-25T06:56:30.416Z,65.86
2023-03-25T06:59:20.599Z,65.79
2023-03-25T07:02:11.802Z,65.64
2023-03-25T07:05:00.948Z,65.35
2023-03-25T07:07:49.751Z,65.23
2023-03-25T07:10:39.133Z,65.19
2023-03-25T07:13:29.172Z,64.90
2023-03-25T07:16:18.157Z,64.93
2023-03-25T07:19:06.826Z,64.53
2023-03-25T07:21:56.456Z,64.57
2023-03-25T07:24:45.485Z,64.53
2023-03-25T07:27:35.600Z,64.36
2023-03-25T07:30:31.347Z,64.41
2023-03-25T07:33:20.425Z,63.81
2023-03-25T07:36:12.414Z,63.80
2023-03-25T07:39:01.249Z,63.78
2023-03-25T07:41:49.870Z,63.32
2023-03-25T07:44:53.972Z,63.18
2023-03-25T07:47:50.313Z,62.99
2023-03-25T07:50:39.375Z,62.79
2023-03-25T07:53:28.077Z,62.34
2023-03-25T07:56:17.445Z,62.44
2023-03-25T07:59:06.820Z,61.79
2023-03-25T08:01:55.618Z,61.26
2023-03-25T08:04:47.029Z,61.34
2023-03-25T08:07:36.115Z,60.53
2023-03-25T08:10:24.745Z,60.14
2023-03-25T08:13:13.753Z,59.56
2023-03-25T08:16:02.529Z,59.16
2023-03-25T08:18:53.322Z,58.74
2023-03-25T08:21:43.357Z,58.56
2023-03-25T08:24:33.063Z,57.97
2023-03-25T08:27:21.744Z,57.35
2023-03-25T08:30:12.097Z,57.13
2023-03-25T08:33:00.816Z,56.83
2023-03-25T08:35:51.555Z,56.70
2023-03-25T08:38:42.533Z,56.25
2023-03-25T08:41:32.432Z,55.89
2023-03-25T08:44:21.457Z,55.49
2023-03-25T08:47:11.249Z,55.54
2023-03-25T08:49:59.919Z,55.11
2023-03-25T08:52:49.081Z,54.56
2023-03-25T09:03:23.871Z,53.94
2023-03-25T09:10:19.380Z,52.65
2023-03-25T09:13:13.191Z,52.27
2023-03-25T09:16:02.374Z,51.56
2023-03-25T09:19:08.601Z,51.77
2023-03-25T09:25:45.386Z,51.52
2023-03-25T09:33:00.292Z,51.64
2023-03-25T09:35:50.244Z,52.40
2023-03-25T09:38:39.589Z,52.25
2023-03-25T09:46:17.627Z,51.33
2023-03-25T09:49:46.598Z,51.53
2023-03-25T09:52:53.577Z,51.49
2023-03-25T09:56:06.711Z,51.73
2023-03-25T09:59:05.612Z,52.03
2023-03-25T10:06:20.490Z,52.30
2023-03-25T10:10:15.327Z,52.41
2023-03-25T10:14:09.696Z,52.04
2023-03-25T10:17:37.409Z,51.92
2023-03-25T10:20:43.067Z,51.94
2023-03-25T10:23:39.646Z,52.19
2023-03-25T10:26:32.274Z,51.91
2023-03-25T10:29:26.320Z,51.73
2023-03-25T10:32:19.464Z,51.42
2023-03-25T10:35:16.177Z,51.22
2023-03-25T10:38:19.780Z,49.97
2023-03-25T10:41:24.052Z,49.33
2023-03-25T10:44:26.867Z,49.35
2023-03-25T10:47:19.747Z,49.37
2023-03-25T10:50:15.305Z,49.50
2023-03-25T10:53:06.798Z,48.85
2023-03-25T10:55:59.826Z,48.65
2023-03-25T10:58:54.173Z,48.07
2023-03-25T11:01:44.393Z,47.80
2023-03-25T11:04:37.227Z,47.96
2023-03-25T11:07:30.987Z,47.42
2023-03-25T11:10:22.890Z,47.10
2023-03-25T11:13:16.978Z,47.25
2023-03-25T11:16:06.518Z,46.88
2023-03-25T11:18:56.100Z,47.04
2023-03-25T11:21:48.698Z,46.54
2023-03-25T11:24:46.000Z,46.49
2023-03-25T11:27:45.268Z,46.68
2023-03-25T11:30:47.895Z,47.12
2023-03-25T11:34:31.157Z,47.00
2023-03-25T11:37:47.211Z,46.66
2023-03-25T11:40:37.808Z,46.04
2023-03-25T11:43:33.091Z,45.93
2023-03-25T11:46:23.724Z,45.79
2023-03-25T11:49:18.359Z,45.52
2023-03-25T11:52:10.524Z,44.57
2023-03-25T11:54:59.594Z,44.05
2023-03-25T11:57:51.815Z,43.96
2023-03-25T12:00:42.262Z,43.98
2023-03-25T12:03:35.782Z,43.85
2023-03-25T12:06:25.206Z,43.28
2023-03-25T12:09:13.811Z,43.47
2023-03-25T12:12:26.571Z,43.72
2023-03-25T12:15:31.350Z,42.74
2023-03-25T12:18:42.626Z,42.79
2023-03-25T12:21:44.092Z,42.55
2023-03-25T12:24:55.552Z,42.31
2023-03-25T12:27:53.912Z,42.95
2023-03-25T12:30:55.703Z,42.77
2023-03-25T12:33:57.858Z,42.82
2023-03-25T12:36:57.178Z,42.32
2023-03-25T12:39:58.125Z,42.82
2023-03-25T12:42:56.158Z,43.09
2023-03-25T12:46:02.596Z,43.27
2023-03-25T12:49:06.264Z,42.58
2023-03-25T12:52:05.708Z,42.15
2023-03-25T12:55:04.534Z,42.43
2023-03-25T12:58:06.674Z,43.42
2023-03-25T13:01:07.034Z,43.87
2023-03-25T13:04:09.554Z,43.40
2023-03-25T13:07:04.778Z,43.70
2023-03-25T13:09:59.326Z,43.52
2023-03-25T13:12:52.433Z,43.61
2023-03-25T13:15:45.052Z,43.77
2023-03-25T13:18:40.277Z,44.10
2023-03-25T13:21:33.200Z,44.33
2023-03-25T13:24:31.680Z,44.68
2023-03-25T13:27:20.678Z,44.90
2023-03-25T13:30:18.854Z,45.10
2023-03-25T13:33:13.737Z,45.79
2023-03-25T13:36:12.095Z,48.36
2023-03-25T13:39:06.992Z,49.08
2023-03-25T13:42:04.425Z,50.51
2023-03-25T13:44:56.266Z,51.93
2023-03-25T13:47:51.454Z,52.58
2023-03-25T13:50:40.216Z,52.87
2023-03-25T13:53:34.927Z,54.30
2023-03-25T13:57:17.952Z,55.11
2023-03-25T14:00:36.465Z,55.50
2023-03-25T14:03:50.886Z,55.30
2023-03-25T14:07:00.692Z,54.64
2023-03-25T14:10:11.572Z,53.68
2023-03-25T14:13:07.266Z,53.00
2023-03-25T14:16:01.805Z,52.25
2023-03-25T14:18:53.767Z,52.15
2023-03-25T14:21:44.623Z,51.89
2023-03-25T14:24:38.025Z,52.37
2023-03-25T14:27:30.057Z,52.72
2023-03-25T14:30:23.260Z,52.75
2023-03-25T14:33:12.914Z,53.00
2023-03-25T14:36:02.536Z,53.30
2023-03-25T14:38:56.305Z,54.00
2023-03-25T14:42:02.515Z,54.48
2023-03-25T14:44:54.308Z,55.40
2023-03-25T14:47:54.672Z,55.75
2023-03-25T14:50:43.837Z,55.53
2023-03-25T14:53:33.458Z,55.06
2023-03-25T14:56:26.418Z,54.45
2023-03-25T14:59:19.997Z,53.62
2023-03-25T15:02:17.856Z,53.03
2023-03-25T15:05:18.838Z,52.60
2023-03-25T15:08:22.239Z,52.58
2023-03-25T15:11:14.588Z,52.68
2023-03-25T15:14:08.730Z,52.12
2023-03-25T15:17:05.602Z,52.26
2023-03-25T15:20:35.817Z,52.37
2023-03-25T15:23:45.174Z,52.41
2023-03-25T15:26:38.838Z,52.65
2023-03-25T15:29:43.328Z,52.58
2023-03-25T15:32:49.374Z,53.29
2023-03-25T15:35:53.470Z,53.82
2023-03-25T15:38:52.879Z,54.46
2023-03-25T15:42:08.192Z,55.15
2023-03-25T15:45:15.455Z,55.83
2023-03-25T15:48:30.031Z,56.35
2023-03-25T15:51:38.183Z,56.19
2023-03-25T15:54:32.833Z,56.08
2023-03-25T15:57:26.344Z,56.02
2023-03-25T16:00:23.165Z,56.16
2023-03-25T16:03:16.729Z,56.38
2023-03-25T16:06:08.482Z,56.56
2023-03-25T16:09:00.383Z,57.41
2023-03-25T16:11:49.085Z,57.54
2023-03-25T16:14:40.459Z,57.26
2023-03-25T16:17:34.017Z,57.40
2023-03-25T16:20:26.053Z,57.22
2023-03-25T16:23:21.332Z,57.00
2023-03-25T16:26:16.769Z,56.33
2023-03-25T16:29:18.521Z,56.50
2023-03-25T16:32:09.502Z,56.43
2023-03-25T16:34:58.368Z,56.31
2023-03-25T16:37:47.930Z,56.33
2023-03-25T16:40:40.136Z,56.04
2023-03-25T16:43:32.576Z,56.04
2023-03-25T16:46:23.496Z,56.34
2023-03-25T16:49:22.933Z,56.14
2023-03-25T16:52:15.715Z,56.17
2023-03-25T16:55:29.344Z,55.90
2023-03-25T17:50:37.670Z,59.90
2023-03-25T17:57:58.450Z,60.27
2023-03-25T18:00:49.159Z,60.83
2023-03-25T18:03:42.350Z,60.94
2023-03-25T18:06:32.839Z,61.17
2023-03-25T18:09:30.000Z,61.05
2023-03-25T18:17:05.274Z,61.23
2023-03-25T18:20:00.545Z,61.15
2023-03-25T18:28:59.972Z,61.00
2023-03-25T18:44:41.162Z,60.78
2023-03-25T18:47:29.909Z,60.57
2023-03-25T18:51:27.768Z,60.83
2023-03-25T18:54:17.573Z,61.00
2023-03-25T19:00:44.217Z,61.44
2023-03-25T19:03:40.457Z,61.60
2023-03-25T19:06:30.473Z,61.62
2023-03-25T19:09:56.576Z,61.93
2023-03-25T19:12:50.162Z,62.00
2023-03-25T19:15:43.217Z,62.26
2023-03-25T19:18:34.610Z,62.05
2023-03-25T19:25:52.629Z,62.64
2023-03-25T19:28:53.879Z,62.60
2023-03-25T19:34:53.931Z,62.54
2023-03-25T19:37:58.160Z,62.67
2023-03-25T19:40:49.226Z,62.56
2023-03-25T19:43:59.829Z,62.25
2023-03-25T19:46:50.224Z,62.32
2023-03-25T19:49:40.458Z,62.21
2023-03-25T19:53:29.164Z,62.56
2023-03-25T20:10:20.091Z,62.60
2023-03-25T20:17:06.460Z,62.82
2023-03-25T20:20:10.262Z,63.05
2023-03-25T20:26:23.490Z,63.17
2023-03-25T20:30:51.533Z,63.24
2023-03-25T20:54:19.238Z,62.76
2023-03-25T21:01:50.591Z,62.67
2023-03-25T21:04:51.576Z,62.76
2023-03-25T21:08:18.946Z,62.64
2023-03-25T21:11:09.855Z,62.81
2023-03-25T21:14:30.317Z,63.04
2023-03-25T21:17:40.123Z,63.08
2023-03-25T21:27:53.775Z,63.25
2023-03-25T21:39:37.351Z,63.42
2023-03-25T21:43:04.648Z,63.27
2023-03-25T21:46:55.484Z,63.49
2023-03-25T21:50:19.224Z,63.42
2023-03-25T21:53:23.338Z,63.52
2023-03-25T21:57:00.536Z,63.31
2023-03-25T22:00:07.122Z,63.31
2023-03-25T22:03:31.381Z,63.10
2023-03-25T22:14:18.260Z,63.02
2023-03-25T22:17:28.303Z,63.23
2023-03-25T22:32:18.219Z,62.91
2023-03-25T22:39:40.747Z,62.63
2023-03-25T22:42:47.516Z,62.43
2023-03-25T23:05:26.640Z,61.88
2023-03-25T23:13:31.865Z,62.20
2023-03-25T23:17:27.910Z,62.58
2023-03-25T23:20:17.417Z,62.58
2023-03-25T23:23:12.400Z,62.86
2023-03-25T23:27:02.418Z,62.94
2023-03-25T23:51:20.985Z,63.75
